Data for 02/21/2016

Time Sea-Level Adjusted Pressure Absolute Pressure Temperature Relative Humidity Dew Point   
(mb) (inHg) (mb) (inHg) (C) (F) (%) (C) (F)
00:05 1027 30.33 856 25.28 -3.3 26.1 47 -13 8.6
00:10 1027 30.33 856 25.28 -3.3 26.1 47 -13 8.6
00:15 1027 30.33 856 25.28 -3.4 25.8 49 -12.7 9.2
00:20 1027 30.33 856 25.28 -3.4 25.8 48 -12.9 8.8
00:25 1027 30.33 856 25.28 -3.2 26.2 47 -13.1 8.4
00:30 1027 30.33 856 25.28 -3.1 26.5 47 -12.8 8.9
00:35 1027 30.33 856 25.28 -3.1 26.5 46 -13.1 8.5
00:40 1027 30.33 856 25.28 -3.1 26.5 46 -13.1 8.5
00:45 1027 30.33 856 25.28 -3.2 26.2 48 -12.8 9
00:50 1027 30.33 856 25.28 -3.7 25.3 52 -12.3 9.8
00:55 1027 30.33 856 25.28 -4 24.9 53 -12.2 10
01:00 1027 30.33 856 25.28 -3.9 24.9 51 -12.5 9.4
01:05 1027 30.33 856 25.28 -4.2 24.5 52 -12.6 9.4
01:10 1027 30.33 856 25.28 -4.4 24.1 54 -12.4 9.6
01:15 1027 30.33 856 25.28 -4.7 23.6 56 -12.1 10.2
01:20 1027 30.33 856 25.28 -4.9 23.1 57 -12.2 10
01:25 1027 30.33 856 25.28 -5.2 22.7 57 -12.4 9.7
01:30 1027 30.33 856 25.28 -5.3 22.5 57 -12.5 9.5
01:35 1027 30.33 856 25.28 -5.3 22.5 56 -12.8 8.9
01:40 1027 30.33 856 25.28 -4.9 23.2 54 -12.9 8.7
01:45 1027 30.33 856 25.28 -4.7 23.5 53 -13 8.6
01:50 1027 30.33 856 25.28 -4.4 24 50 -13.3 8
01:55 1027 30.33 856 25.28 -4.2 24.5 50 -13 8.6
02:00 1027 30.33 856 25.28 -4.2 24.4 50 -13.2 8.2
02:05 1027 30.33 856 25.28 -4.2 24.5 50 -13.1 8.5
02:10 1027 30.33 856 25.28 -4.1 24.6 49 -13.2 8.2
02:15 1027 30.33 856 25.28 -4.1 24.6 49 -13.2 8.2
02:20 1027 30.33 856 25.28 -4.3 24.3 50 -13.1 8.4
02:25 1027 30.33 856 25.28 -4.3 24.2 50 -13.2 8.3
02:30 1026 30.3 856 25.28 -4.4 24 51 -13.1 8.4
02:35 1026 30.3 856 25.28 -4.7 23.6 52 -13.1 8.4
02:40 1026 30.3 856 25.28 -4.9 23.3 52 -13.2 8.2
02:45 1026 30.3 856 25.28 -4.8 23.4 52 -13.3 8
02:50 1026 30.3 856 25.28 -4.8 23.4 52 -13.3 8.1
02:55 1026 30.3 855 25.25 -4.8 23.4 51 -13.4 7.9
03:00 1026 30.3 855 25.25 -4.8 23.3 52 -13.2 8.3
03:05 1026 30.3 855 25.25 -5.1 22.8 54 -13.1 8.4
03:10 1026 30.3 855 25.25 -5.2 22.7 54 -13.1 8.4
03:15 1026 30.3 855 25.25 -5.3 22.5 55 -13.1 8.5
03:20 1026 30.3 855 25.25 -5.4 22.3 55 -13.1 8.4
03:25 1026 30.3 855 25.25 -5.4 22.2 55 -13.1 8.4
03:30 1026 30.3 855 25.25 -5.5 22.1 55 -13.1 8.5
03:35 1026 30.3 855 25.25 -5.5 22 55 -13.2 8.3
03:40 1026 30.3 855 25.25 -5.5 22 55 -13.2 8.3
03:45 1026 30.3 855 25.25 -5.5 22 56 -13 8.5
03:50 1026 30.3 855 25.25 -5.6 21.9 56 -13 8.5
03:55 1026 30.3 855 25.25 -5.6 21.9 56 -13.1 8.5
04:00 1026 30.3 855 25.25 -5.7 21.8 57 -12.8 8.9
04:05 1026 30.3 855 25.25 -5.7 21.7 56 -13.1 8.4
04:10 1026 30.3 855 25.25 -5.7 21.7 57 -12.9 8.8
04:15 1026 30.3 855 25.25 -5.8 21.5 57 -13 8.5
04:20 1026 30.3 855 25.25 -5.9 21.3 57 -13.1 8.4
04:25 1026 30.3 855 25.25 -5.9 21.3 57 -13.1 8.4
04:30 1026 30.3 855 25.25 -5.8 21.5 56 -13.2 8.3
04:35 1025 30.27 855 25.25 -5.8 21.6 58 -12.7 9.1
04:40 1025 30.27 855 25.25 -6.2 20.9 60 -12.8 9
04:45 1025 30.27 855 25.25 -6.1 20.9 59 -13 8.7
04:50 1025 30.27 854 25.22 -6.1 21.1 59 -12.7 9.1
04:55 1025 30.27 854 25.22 -6.3 20.7 60 -12.8 9
05:00 1025 30.27 854 25.22 -6.5 20.3 60 -13 8.6
05:05 1025 30.27 854 25.22 -6.2 20.8 58 -13.2 8.3
05:10 1025 30.27 854 25.22 -5.9 21.4 57 -13.2 8.3
05:15 1025 30.27 854 25.22 -5.8 21.5 56 -13.2 8.3
05:20 1025 30.27 854 25.22 -5.6 21.9 56 -13.1 8.4
05:25 1025 30.27 854 25.22 -5.8 21.5 57 -13.1 8.5
05:30 1025 30.27 854 25.22 -5.8 21.5 56 -13.2 8.3
05:35 1025 30.27 854 25.22 -5.9 21.3 58 -13 8.5
05:40 1025 30.27 854 25.22 -6.2 20.8 58 -13.2 8.3
05:45 1025 30.27 854 25.22 -6.2 20.9 58 -13.2 8.3
05:50 1025 30.27 854 25.22 -6.2 20.8 57 -13.4 7.9
05:55 1025 30.27 854 25.22 -6.1 21 57 -13.3 8.1
06:00 1025 30.27 854 25.22 -6.1 20.9 57 -13.3 8.1
06:05 1025 30.27 854 25.22 -6.2 20.8 57 -13.4 7.9
06:10 1025 30.27 854 25.22 -6.1 21.1 57 -13.3 8.1
06:15 1025 30.27 854 25.22 -6 21.2 56 -13.5 7.7
06:20 1025 30.27 854 25.22 -5.9 21.3 55 -13.5 7.7
06:25 1025 30.27 854 25.22 -6 21.2 55 -13.6 7.6
06:30 1025 30.27 854 25.22 -5.9 21.3 55 -13.6 7.6
06:35 1025 30.27 854 25.22 -6 21.1 56 -13.5 7.6
06:40 1025 30.27 854 25.22 -6 21.2 56 -13.5 7.8
06:45 1025 30.27 854 25.22 -6.1 21 56 -13.5 7.8
06:50 1025 30.27 854 25.22 -6.4 20.5 58 -13.4 7.8
06:55 1025 30.27 854 25.22 -6.7 20 59 -13.4 7.8
07:00 1025 30.27 854 25.22 -6.9 19.6 59 -13.6 7.5
07:05 1025 30.27 854 25.22 -6.9 19.6 60 -13.5 7.7
07:10 1025 30.27 854 25.22 -7 19.4 60 -13.5 7.7
07:15 1025 30.27 854 25.22 -7 19.5 60 -13.6 7.6
07:20 1025 30.27 854 25.22 -7 19.4 60 -13.4 7.8
07:25 1025 30.27 854 25.22 -7.1 19.3 60 -13.6 7.5
07:30 1025 30.27 854 25.22 -7.2 19.1 60 -13.6 7.5
07:35 1025 30.27 854 25.22 -7.2 19.1 60 -13.7 7.3
07:40 1025 30.27 854 25.22 -7.2 19.1 60 -13.7 7.3
07:45 1025 30.27 854 25.22 -7 19.5 59 -13.8 7.2
07:50 1025 30.27 854 25.22 -6.8 19.8 58 -13.7 7.3
07:55 1025 30.27 854 25.22 -6.7 20 57 -13.9 6.9
08:00 1025 30.27 854 25.22 -6.5 20.4 55 -14 6.8
08:05 1025 30.27 854 25.22 -6.4 20.5 56 -13.9 7
08:10 1025 30.27 854 25.22 -6.6 20.1 57 -13.8 7.2
08:15 1025 30.27 854 25.22 -6.7 20 56 -14.2 6.5
08:20 1025 30.27 854 25.22 -6.6 20.1 56 -14 6.8
08:25 1025 30.27 854 25.22 -7 19.4 57 -14 6.7
08:30 1025 30.27 854 25.22 -7.2 19 58 -14.2 6.5
08:35 1025 30.27 854 25.22 -7.1 19.3 55 -14.6 5.6
08:40 1025 30.27 855 25.25 -6.6 20.1 55 -14.3 6.3
08:45 1025 30.27 855 25.25 -6.5 20.3 54 -14.4 6.1
08:50 1025 30.27 855 25.25 -6.3 20.6 54 -14.1 6.6
08:55 1025 30.27 855 25.25 -6.5 20.2 55 -14.2 6.4
09:00 1025 30.27 855 25.25 -6.7 20 55 -14.3 6.3
09:05 1025 30.27 855 25.25 -6.3 20.6 54 -14.3 6.3
09:10 1025 30.27 855 25.25 -5.9 21.4 52 -14.1 6.5
09:15 1025 30.27 855 25.25 -5.8 21.6 53 -13.9 7
09:20 1025 30.27 855 25.25 -5.3 22.4 51 -14 6.8
09:25 1025 30.27 854 25.22 -5.1 22.9 50 -13.9 7
09:30 1025 30.27 854 25.22 -4.7 23.5 49 -13.8 7.1
09:35 1025 30.27 854 25.22 -4.5 23.9 48 -13.9 7.1
09:40 1025 30.27 854 25.22 -4.1 24.7 48 -13.5 7.6
09:45 1025 30.27 854 25.22 -3.7 25.3 47 -13.5 7.7
09:50 1025 30.27 854 25.22 -3.3 26 46 -13.4 7.8
09:55 1025 30.27 854 25.22 -3.2 26.2 43 -14 6.7
10:00 1025 30.27 854 25.22 -3.3 26.1 44 -13.9 6.9
10:05 1025 30.27 854 25.22 -3 26.5 42 -14.1 6.6
10:10 1025 30.27 854 25.22 -2.6 27.2 42 -13.9 7
10:15 1025 30.27 854 25.22 -2.2 28.1 39 -14.3 6.2
10:20 1025 30.27 854 25.22 -1.7 29 39 -14 6.7
10:25 1025 30.27 854 25.22 -1.7 28.9 40 -13.8 7.2
10:30 1025 30.27 854 25.22 -1.5 29.3 40 -13.5 7.7
10:35 1025 30.27 854 25.22 -1 30.2 38 -13.7 7.3
10:40 1025 30.27 854 25.22 -0.4 31.3 36 -13.7 7.3
10:45 1025 30.27 854 25.22 -0.4 31.3 37 -13.5 7.7
10:50 1025 30.27 854 25.22 -0.5 31.1 36 -13.8 7.1
10:55 1025 30.27 854 25.22 -0.7 30.7 37 -13.8 7.1
11:00 1025 30.27 854 25.22 -0.3 31.5 34 -14.2 6.4
11:05 1025 30.27 854 25.22 -0.2 31.6 35 -13.8 7.2
11:10 1025 30.27 854 25.22 -0.4 31.3 34 -14.4 6
11:15 1024 30.24 854 25.22 0.3 32.6 32 -14.4 6
11:20 1024 30.24 853 25.19 0.6 33.1 32 -14.4 6.1
11:25 1024 30.24 853 25.19 1 33.7 32 -14.2 6.5
11:30 1024 30.24 853 25.19 1.2 34.1 30 -14.5 6
11:35 1024 30.24 853 25.19 1.1 34 30 -14.6 5.7
11:40 1024 30.24 853 25.19 1.1 34.1 32 -13.9 6.9
11:45 1024 30.24 853 25.19 0.7 33.3 32 -14.1 6.7
11:50 1024 30.24 853 25.19 0.7 33.3 33 -14 6.8
11:55 1024 30.24 853 25.19 1.3 34.3 30 -14.5 6
12:00 1024 30.24 853 25.19 1.9 35.4 29 -14.5 5.8
12:05 1024 30.24 853 25.19 2.1 35.8 28 -14.4 6.1
12:10 1024 30.24 853 25.19 2 35.7 30 -14 6.8
12:15 1024 30.24 853 25.19 2.1 35.8 29 -14.3 6.2
12:20 1024 30.24 853 25.19 2.6 36.7 28 -14.3 6.2
12:25 1024 30.24 853 25.19 3 37.5 28 -14 6.8
12:30 1024 30.24 853 25.19 3.2 37.7 29 -13.2 8.3
12:35 1024 30.24 853 25.19 2.5 36.5 30 -13.4 7.9
12:40 1024 30.24 853 25.19 2 35.5 32 -13 8.5
12:45 1024 30.24 853 25.19 2.1 35.8 30 -13.6 7.5
12:50 1024 30.24 853 25.19 2.5 36.4 31 -13.1 8.4
12:55 1024 30.24 853 25.19 1.8 35.2 33 -12.9 8.8
13:00 1023 30.21 853 25.19 1.7 35 31 -13.7 7.4
13:05 1023 30.21 852 25.16 2.3 36.1 33 -12.5 9.5
13:10 1023 30.21 852 25.16 3.2 37.8 30 -12.9 8.8
13:15 1023 30.21 852 25.16 3.1 37.6 30 -12.7 9.1
13:20 1023 30.21 852 25.16 2.8 37 30 -13.3 8
13:25 1023 30.21 852 25.16 3.3 37.9 28 -13.5 7.7
13:30 1023 30.21 852 25.16 3.5 38.3 28 -13.2 8.3
13:35 1023 30.21 852 25.16 2.3 36.2 31 -13.1 8.4
13:40 1023 30.21 852 25.16 3.3 37.9 31 -12.5 9.5
13:45 1023 30.21 852 25.16 3.4 38.1 30 -12.8 9
13:50 1023 30.21 852 25.16 3.6 38.4 30 -12.6 9.4
13:55 1023 30.21 852 25.16 3.2 37.8 29 -13.2 8.2
14:00 1022 30.18 852 25.16 3.9 39 26 -13.8 7.2
14:05 1022 30.18 852 25.16 4.5 40.1 28 -12.7 9.1
14:10 1022 30.18 852 25.16 4.7 40.4 27 -13 8.5
14:15 1022 30.18 851 25.13 4.3 39.7 29 -12.1 10.2
14:20 1022 30.18 851 25.13 4.1 39.3 29 -12.5 9.4
14:25 1022 30.18 851 25.13 4.3 39.7 29 -12.1 10.2
14:30 1022 30.18 851 25.13 4.4 40 26 -13.4 7.9
14:35 1022 30.18 851 25.13 4.4 39.9 29 -12.2 10
14:40 1022 30.18 851 25.13 4.1 39.5 27 -13.4 7.9
14:45 1022 30.18 851 25.13 4.7 40.5 23 -14.5 5.8
14:50 1022 30.18 851 25.13 4.8 40.7 27 -12.5 9.5
14:55 1021 30.15 851 25.13 4.8 40.7 26 -12.9 8.7
15:00 1021 30.15 851 25.13 5.4 41.8 25 -12.9 8.8
15:05 1021 30.15 851 25.13 5.5 41.9 25 -13.2 8.2
15:10 1021 30.15 851 25.13 5.5 41.9 21 -14.9 5.2
15:15 1021 30.15 850 25.1 5.3 41.5 22 -14.7 5.5
15:20 1021 30.15 850 25.1 5.4 41.7 24 -13.9 7
15:25 1021 30.15 850 25.1 4.6 40.3 24 -14.4 6.1
15:30 1021 30.15 850 25.1 4.3 39.8 25 -13.9 7
15:35 1021 30.15 850 25.1 5 41 22 -15.1 4.8
15:40 1021 30.15 850 25.1 4.8 40.7 24 -14 6.9
15:45 1021 30.15 850 25.1 4.9 40.8 23 -14.5 5.9
15:50 1021 30.15 850 25.1 4.8 40.6 24 -14.1 6.7
15:55 1021 30.15 850 25.1 4.2 39.5 25 -14 6.8
16:00 1021 30.15 850 25.1 5.1 41.1 25 -13.5 7.7
16:05 1021 30.15 850 25.1 4.8 40.7 24 -14.1 6.7
16:10 1021 30.15 850 25.1 5.1 41.2 23 -14.6 5.8
16:15 1021 30.15 850 25.1 5.2 41.3 23 -14.6 5.8
16:20 1021 30.15 850 25.1 6.2 43.1 22 -14.2 6.5
16:25 1021 30.15 850 25.1 6.5 43.6 23 -13.3 8.1
16:30 1021 30.15 850 25.1 6.3 43.3 23 -13.6 7.5
16:35 1021 30.15 850 25.1 5.8 42.4 25 -12.7 9.2
16:40 1021 30.15 850 25.1 4.9 40.8 25 -13.4 7.9
16:45 1021 30.15 850 25.1 5 40.9 25 -13.3 8.1
16:50 1021 30.15 850 25.1 5 41 25 -13.4 7.9
16:55 1021 30.15 850 25.1 5.4 41.8 23 -14.1 6.7
17:00 1021 30.15 850 25.1 6.2 43.2 23 -13.7 7.4
17:05 1021 30.15 850 25.1 6 42.8 24 -13 8.7
17:10 1021 30.15 850 25.1 5.9 42.7 26 -12.4 9.7
17:15 1021 30.15 850 25.1 5.4 41.7 25 -12.9 8.7
17:20 1021 30.15 850 25.1 5.1 41.3 26 -12.8 8.9
17:25 1021 30.15 850 25.1 5 40.9 27 -12.7 9.1
17:30 1021 30.15 850 25.1 5.1 41.1 26 -12.8 9
17:35 1021 30.15 850 25.1 5.2 41.4 26 -12.7 9.2
17:40 1021 30.15 850 25.1 5.5 41.9 26 -12.8 9
17:45 1021 30.15 850 25.1 5.5 41.9 26 -12.8 9
17:50 1021 30.15 850 25.1 5.3 41.5 27 -12.3 9.8
17:55 1021 30.15 850 25.1 4.8 40.6 28 -12.3 9.8
18:00 1021 30.15 850 25.1 4.3 39.7 29 -12.3 9.9
18:05 1021 30.15 850 25.1 3.9 39 30 -12.3 9.8
18:10 1021 30.15 850 25.1 3.6 38.4 30 -12.3 9.8
18:15 1021 30.15 850 25.1 3.6 38.5 30 -12.5 9.6
18:20 1021 30.15 850 25.1 3.5 38.3 31 -12.1 10.2
18:25 1021 30.15 850 25.1 3.3 37.9 32 -11.8 10.7
18:30 1021 30.15 850 25.1 2.9 37.2 33 -11.9 10.7
18:35 1021 30.15 850 25.1 2.7 36.9 33 -12 10.4
18:40 1021 30.15 850 25.1 2.6 36.7 33 -12.2 10
18:45 1021 30.15 850 25.1 2.7 36.8 33 -11.9 10.5
18:50 1021 30.15 850 25.1 2.6 36.8 33 -12 10.4
18:55 1021 30.15 850 25.1 2.5 36.5 32 -12.7 9.1
19:00 1021 30.15 850 25.1 2.5 36.5 33 -12.4 9.6
19:05 1021 30.15 850 25.1 2.3 36.2 33 -12.2 10
19:10 1021 30.15 850 25.1 2.2 36 36 -11.6 11.2
19:15 1021 30.15 850 25.1 1.9 35.5 37 -11.2 11.8
19:20 1021 30.15 850 25.1 1.6 34.9 39 -11.1 12.1
19:25 1021 30.15 850 25.1 1.4 34.5 39 -11 12.1
19:30 1021 30.15 850 25.1 1.2 34.2 40 -10.9 12.4
19:35 1021 30.15 850 25.1 0.9 33.7 42 -10.6 12.9
19:40 1020 30.12 850 25.1 0.7 33.3 43 -10.4 13.4
19:45 1020 30.12 850 25.1 0.6 33 44 -10.3 13.5
19:50 1020 30.12 850 25.1 0.4 32.6 44 -10.4 13.3
19:55 1020 30.12 850 25.1 0.5 32.8 43 -10.9 12.5
20:00 1020 30.12 850 25.1 0.5 33 43 -10.8 12.6
20:05 1020 30.12 850 25.1 0.5 32.9 42 -11 12.2
20:10 1020 30.12 850 25.1 0.6 33.1 41 -11.1 12
20:15 1020 30.12 849 25.07 0.7 33.2 40 -11.6 11.1
20:20 1020 30.12 849 25.07 0.8 33.5 39 -11.6 11.1
20:25 1020 30.12 849 25.07 0.9 33.6 38 -11.8 10.8
20:30 1020 30.12 849 25.07 1 33.8 39 -11.6 11.1
20:35 1020 30.12 849 25.07 0.9 33.7 39 -11.6 11.1
20:40 1020 30.12 849 25.07 0.9 33.7 39 -11.5 11.3
20:45 1020 30.12 849 25.07 1.1 34 39 -11.4 11.5
20:50 1020 30.12 849 25.07 1.2 34.2 39 -11.3 11.7
20:55 1020 30.12 849 25.07 1.2 34.1 39 -11.3 11.7
21:00 1020 30.12 849 25.07 0.9 33.6 39 -11.5 11.3
21:05 1020 30.12 849 25.07 0.9 33.6 39 -11.7 11
21:10 1020 30.12 849 25.07 0.8 33.5 41 -11.2 11.9
21:15 1020 30.12 849 25.07 0.7 33.3 42 -10.9 12.3
21:20 1020 30.12 849 25.07 0.5 32.9 43 -10.6 13
21:25 1020 30.12 849 25.07 0.3 32.6 45 -10.3 13.5
21:30 1020 30.12 849 25.07 0.5 32.9 46 -9.7 14.5
21:35 1020 30.12 849 25.07 0.5 32.9 47 -9.5 14.8
21:40 1020 30.12 849 25.07 0.7 33.3 44 -10.2 13.6
21:45 1020 30.12 849 25.07 1 33.9 41 -10.8 12.6
21:50 1020 30.12 849 25.07 1.1 33.9 41 -10.9 12.4
21:55 1020 30.12 849 25.07 1.3 34.4 40 -10.9 12.4
22:00 1020 30.12 849 25.07 1.6 34.8 42 -10.2 13.7
22:05 1020 30.12 849 25.07 1.4 34.5 45 -9.3 15.2
22:10 1020 30.12 849 25.07 1 33.9 47 -9.1 15.5
22:15 1020 30.12 849 25.07 1.1 34 44 -9.8 14.3
22:20 1020 30.12 849 25.07 1.3 34.4 44 -9.6 14.7
22:25 1020 30.12 849 25.07 1.1 34 47 -9 15.7
22:30 1020 30.12 849 25.07 0.4 32.8 50 -8.8 16.2
22:35 1020 30.12 849 25.07 0.1 32.2 50 -9.2 15.4
22:40 1020 30.12 849 25.07 0.2 32.4 48 -9.6 14.7
22:45 1020 30.12 849 25.07 0.4 32.8 47 -9.6 14.8
22:50 1020 30.12 849 25.07 0.8 33.5 43 -10.5 13.1
22:55 1020 30.12 849 25.07 1.2 34.1 43 -10.2 13.7
23:00 1020 30.12 849 25.07 1.4 34.6 39 -10.9 12.3
23:05 1020 30.12 849 25.07 1.7 35.1 38 -11.2 11.9
23:10 1020 30.12 849 25.07 1.9 35.4 42 -9.6 14.6
23:15 1020 30.12 849 25.07 1.6 34.9 46 -8.9 16.1
23:20 1020 30.12 849 25.07 1.1 34 44 -10 14.1
23:25 1020 30.12 849 25.07 1.1 34 41 -10.6 12.9
23:30 1020 30.12 849 25.07 1.4 34.5 42 -10.2 13.7
23:35 1020 30.12 849 25.07 1.5 34.7 40 -10.5 13.1
23:40 1020 30.12 849 25.07 1.6 34.8 41 -10.5 13.2
23:45 1020 30.12 849 25.07 1.6 34.9 40 -10.5 13.2
23:50 1020 30.12 849 25.07 1.6 34.8 44 -9.3 15.3
23:55 1020 30.12 849 25.07 1.3 34.4 43 -9.9 14.2
24:00 1019 30.09 849 25.07 1.5 34.6 40 -10.6 12.9